sensor_id;sensor_type;location;lat;lon;timestamp;pressure;altitude;pressure_sealevel;temperature;humidity
4745;BME280;2386;42.138;24.746;2023-03-03T00:00:37;99942.00;;;7.69;100.00
4745;BME280;2386;42.138;24.746;2023-03-03T00:03:05;99922.47;;;7.61;100.00
4745;BME280;2386;42.138;24.746;2023-03-03T00:05:32;99919.56;;;7.62;100.00
4745;BME280;2386;42.138;24.746;2023-03-03T00:07:58;99912.91;;;7.58;100.00
4745;BME280;2386;42.138;24.746;2023-03-03T00:10:24;99914.16;;;7.55;100.00
4745;BME280;2386;42.138;24.746;2023-03-03T00:12:49;99909.16;;;7.59;100.00
4745;BME280;2386;42.138;24.746;2023-03-03T00:15:17;99898.81;;;7.76;100.00
4745;BME280;2386;42.138;24.746;2023-03-03T00:17:43;99901.91;;;7.66;100.00
4745;BME280;2386;42.138;24.746;2023-03-03T00:20:37;99895.50;;;7.80;100.00
4745;BME280;2386;42.138;24.746;2023-03-03T00:23:18;99889.06;;;7.75;100.00
4745;BME280;2386;42.138;24.746;2023-03-03T00:25:45;99881.56;;;7.70;100.00
4745;BME280;2386;42.138;24.746;2023-03-03T00:30:49;99878.47;;;7.73;100.00
4745;BME280;2386;42.138;24.746;2023-03-03T00:35:58;99864.78;;;7.88;100.00
4745;BME280;2386;42.138;24.746;2023-03-03T00:38:33;99864.97;;;7.93;100.00
4745;BME280;2386;42.138;24.746;2023-03-03T00:41:01;99866.00;;;7.72;100.00
4745;BME280;2386;42.138;24.746;2023-03-03T00:43:34;99858.53;;;7.74;100.00
4745;BME280;2386;42.138;24.746;2023-03-03T00:46:00;99844.81;;;7.69;100.00
4745;BME280;2386;42.138;24.746;2023-03-03T00:51:06;99838.78;;;7.74;100.00
4745;BME280;2386;42.138;24.746;2023-03-03T00:53:34;99847.09;;;7.72;100.00
4745;BME280;2386;42.138;24.746;2023-03-03T00:56:00;99838.19;;;7.85;100.00
4745;BME280;2386;42.138;24.746;2023-03-03T00:58:25;99834.66;;;7.84;100.00
4745;BME280;2386;42.138;24.746;2023-03-03T01:00:52;99832.97;;;7.77;100.00
4745;BME280;2386;42.138;24.746;2023-03-03T01:03:20;99831.75;;;7.79;100.00
4745;BME280;2386;42.138;24.746;2023-03-03T01:05:47;99832.97;;;7.83;100.00
4745;BME280;2386;42.138;24.746;2023-03-03T01:08:13;99834.03;;;7.82;100.00
4745;BME280;2386;42.138;24.746;2023-03-03T01:10:50;99831.94;;;7.91;100.00
4745;BME280;2386;42.138;24.746;2023-03-03T01:13:18;99832.16;;;7.83;100.00
4745;BME280;2386;42.138;24.746;2023-03-03T01:15:44;99833.59;;;7.72;100.00
4745;BME280;2386;42.138;24.746;2023-03-03T01:18:11;99825.72;;;7.77;100.00
4745;BME280;2386;42.138;24.746;2023-03-03T01:20:37;99828.00;;;7.67;100.00
4745;BME280;2386;42.138;24.746;2023-03-03T01:23:03;99829.03;;;7.66;100.00
4745;BME280;2386;42.138;24.746;2023-03-03T01:25:28;99840.66;;;7.67;100.00
4745;BME280;2386;42.138;24.746;2023-03-03T01:27:54;99834.44;;;7.79;100.00
4745;BME280;2386;42.138;24.746;2023-03-03T01:30:20;99829.25;;;7.84;100.00
4745;BME280;2386;42.138;24.746;2023-03-03T01:32:45;99831.13;;;7.90;100.00
4745;BME280;2386;42.138;24.746;2023-03-03T01:35:11;99835.69;;;7.90;100.00
4745;BME280;2386;42.138;24.746;2023-03-03T01:37:37;99832.78;;;7.78;100.00
4745;BME280;2386;42.138;24.746;2023-03-03T01:40:05;99836.94;;;7.74;100.00
4745;BME280;2386;42.138;24.746;2023-03-03T01:42:31;99830.06;;;7.72;100.00
4745;BME280;2386;42.138;24.746;2023-03-03T01:45:15;99830.69;;;7.80;100.00
4745;BME280;2386;42.138;24.746;2023-03-03T01:47:48;99828.41;;;7.77;100.00
4745;BME280;2386;42.138;24.746;2023-03-03T01:53:15;99838.59;;;8.02;100.00
4745;BME280;2386;42.138;24.746;2023-03-03T01:55:42;99827.38;;;7.91;100.00
4745;BME280;2386;42.138;24.746;2023-03-03T01:58:45;99820.31;;;7.97;100.00
4745;BME280;2386;42.138;24.746;2023-03-03T02:01:18;99816.16;;;7.88;100.00
4745;BME280;2386;42.138;24.746;2023-03-03T02:03:44;99807.03;;;7.82;100.00
4745;BME280;2386;42.138;24.746;2023-03-03T02:06:16;99818.84;;;7.95;100.00
4745;BME280;2386;42.138;24.746;2023-03-03T02:08:50;99807.84;;;7.83;100.00
4745;BME280;2386;42.138;24.746;2023-03-03T02:11:18;99813.25;;;7.96;100.00
4745;BME280;2386;42.138;24.746;2023-03-03T02:13:45;99812.19;;;8.04;100.00
4745;BME280;2386;42.138;24.746;2023-03-03T02:16:10;99811.59;;;7.95;100.00
4745;BME280;2386;42.138;24.746;2023-03-03T02:18:36;99808.69;;;7.97;100.00
4745;BME280;2386;42.138;24.746;2023-03-03T02:21:15;99806.59;;;7.99;100.00
4745;BME280;2386;42.138;24.746;2023-03-03T02:23:50;99807.63;;;7.98;100.00
4745;BME280;2386;42.138;24.746;2023-03-03T02:26:18;99807.44;;;7.86;100.00
4745;BME280;2386;42.138;24.746;2023-03-03T02:28:47;99815.94;;;8.03;100.00
4745;BME280;2386;42.138;24.746;2023-03-03T02:31:15;99810.13;;;8.06;100.00
4745;BME280;2386;42.138;24.746;2023-03-03T02:33:44;99810.34;;;7.98;100.00
4745;BME280;2386;42.138;24.746;2023-03-03T02:36:15;99803.28;;;7.97;100.00
4745;BME280;2386;42.138;24.746;2023-03-03T02:41:42;99796.63;;;8.06;100.00
4745;BME280;2386;42.138;24.746;2023-03-03T02:44:15;99794.75;;;7.93;100.00
4745;BME280;2386;42.138;24.746;2023-03-03T02:46:43;99793.94;;;7.86;100.00
4745;BME280;2386;42.138;24.746;2023-03-03T02:49:12;99808.69;;;7.97;100.00
4745;BME280;2386;42.138;24.746;2023-03-03T02:51:38;99794.13;;;7.98;100.00
4745;BME280;2386;42.138;24.746;2023-03-03T02:54:05;99807.00;;;7.96;100.00
4745;BME280;2386;42.138;24.746;2023-03-03T02:56:30;99801.59;;;7.96;100.00
4745;BME280;2386;42.138;24.746;2023-03-03T02:58:56;99804.09;;;7.97;100.00
4745;BME280;2386;42.138;24.746;2023-03-03T03:01:22;99791.22;;;7.79;100.00
4745;BME280;2386;42.138;24.746;2023-03-03T03:03:47;99808.25;;;7.86;100.00
4745;BME280;2386;42.138;24.746;2023-03-03T03:06:13;99807.84;;;7.89;100.00
4745;BME280;2386;42.138;24.746;2023-03-03T03:08:39;99798.06;;;7.95;100.00
4745;BME280;2386;42.138;24.746;2023-03-03T03:11:05;99801.19;;;8.05;100.00
4745;BME280;2386;42.138;24.746;2023-03-03T03:13:31;99797.84;;;8.16;100.00
4745;BME280;2386;42.138;24.746;2023-03-03T03:15:57;99799.31;;;8.06;100.00
4745;BME280;2386;42.138;24.746;2023-03-03T03:18:22;99805.50;;;8.19;100.00
4745;BME280;2386;42.138;24.746;2023-03-03T03:20:47;99797.00;;;8.16;100.00
4745;BME280;2386;42.138;24.746;2023-03-03T03:23:13;99795.94;;;8.23;100.00
4745;BME280;2386;42.138;24.746;2023-03-03T03:25:38;99805.69;;;8.31;100.00
4745;BME280;2386;42.138;24.746;2023-03-03T03:28:10;99783.50;;;8.16;100.00
4745;BME280;2386;42.138;24.746;2023-03-03T03:30:37;99794.31;;;8.16;100.00
4745;BME280;2386;42.138;24.746;2023-03-03T03:33:02;99786.63;;;8.06;100.00
4745;BME280;2386;42.138;24.746;2023-03-03T03:35:28;99793.91;;;8.12;100.00
4745;BME280;2386;42.138;24.746;2023-03-03T03:37:53;99793.28;;;8.17;100.00
4745;BME280;2386;42.138;24.746;2023-03-03T03:40:18;99778.09;;;8.16;100.00
4745;BME280;2386;42.138;24.746;2023-03-03T03:42:44;99790.59;;;8.04;100.00
4745;BME280;2386;42.138;24.746;2023-03-03T03:45:10;99789.28;;;8.19;100.00
4745;BME280;2386;42.138;24.746;2023-03-03T03:47:40;99788.22;;;8.27;100.00
4745;BME280;2386;42.138;24.746;2023-03-03T03:50:05;99794.91;;;8.18;100.00
4745;BME280;2386;42.138;24.746;2023-03-03T03:52:31;99791.63;;;8.16;100.00
4745;BME280;2386;42.138;24.746;2023-03-03T03:54:56;99788.31;;;8.01;100.00
4745;BME280;2386;42.138;24.746;2023-03-03T03:57:22;99787.06;;;8.10;100.00
4745;BME280;2386;42.138;24.746;2023-03-03T03:59:48;99794.31;;;8.16;100.00
4745;BME280;2386;42.138;24.746;2023-03-03T04:02:14;99790.59;;;8.04;100.00
4745;BME280;2386;42.138;24.746;2023-03-03T04:04:39;99790.16;;;8.07;100.00
4745;BME280;2386;42.138;24.746;2023-03-03T04:07:05;99792.44;;;8.10;100.00
4745;BME280;2386;42.138;24.746;2023-03-03T04:09:30;99790.38;;;7.99;100.00
4745;BME280;2386;42.138;24.746;2023-03-03T04:11:55;99793.09;;;7.99;100.00
4745;BME280;2386;42.138;24.746;2023-03-03T04:14:21;99793.91;;;8.12;100.00
4745;BME280;2386;42.138;24.746;2023-03-03T04:16:46;99786.56;;;8.26;100.00
4745;BME280;2386;42.138;24.746;2023-03-03T04:19:11;99785.53;;;8.27;100.00
4745;BME280;2386;42.138;24.746;2023-03-03T04:21:37;99782.00;;;8.33;100.00
4745;BME280;2386;42.138;24.746;2023-03-03T04:24:02;99775.34;;;8.29;100.00
4745;BME280;2386;42.138;24.746;2023-03-03T04:26:28;99780.53;;;8.31;100.00
4745;BME280;2386;42.138;24.746;2023-03-03T04:28:55;99784.28;;;8.23;100.00
4745;BME280;2386;42.138;24.746;2023-03-03T04:31:20;99787.59;;;8.32;100.00
4745;BME280;2386;42.138;24.746;2023-03-03T04:33:45;99783.03;;;8.32;100.00
4745;BME280;2386;42.138;24.746;2023-03-03T04:36:11;99782.84;;;8.34;100.00
4745;BME280;2386;42.138;24.746;2023-03-03T04:38:36;99785.34;;;8.35;100.00
4745;BME280;2386;42.138;24.746;2023-03-03T04:41:02;99783.03;;;8.32;100.00
4745;BME280;2386;42.138;24.746;2023-03-03T04:43:28;99771.19;;;8.27;100.00
4745;BME280;2386;42.138;24.746;2023-03-03T04:45:53;99780.13;;;8.27;100.00
4745;BME280;2386;42.138;24.746;2023-03-03T04:48:18;99782.41;;;8.30;100.00
4745;BME280;2386;42.138;24.746;2023-03-03T04:50:44;99779.97;;;8.15;100.00
4745;BME280;2386;42.138;24.746;2023-03-03T04:53:09;99782.25;;;8.12;100.00
4745;BME280;2386;42.138;24.746;2023-03-03T04:55:36;99774.59;;;8.02;100.00
4745;BME280;2386;42.138;24.746;2023-03-03T04:58:02;99781.66;;;7.97;100.00
4745;BME280;2386;42.138;24.746;2023-03-03T05:00:28;99781.66;;;7.97;100.00
4745;BME280;2386;42.138;24.746;2023-03-03T05:02:53;99788.50;;;8.06;100.00
4745;BME280;2386;42.138;24.746;2023-03-03T05:05:19;99782.06;;;8.13;100.00
4745;BME280;2386;42.138;24.746;2023-03-03T05:07:44;99784.97;;;8.12;100.00
4745;BME280;2386;42.138;24.746;2023-03-03T05:10:10;99788.28;;;8.14;100.00
4745;BME280;2386;42.138;24.746;2023-03-03T05:12:36;99787.88;;;8.10;100.00
4745;BME280;2386;42.138;24.746;2023-03-03T05:15:02;99789.94;;;8.15;100.00
4745;BME280;2386;42.138;24.746;2023-03-03T05:17:28;99786.00;;;8.11;100.00
4745;BME280;2386;42.138;24.746;2023-03-03T05:19:53;99796.16;;;8.22;100.00
4745;BME280;2386;42.138;24.746;2023-03-03T05:22:21;99792.66;;;8.08;100.00
4745;BME280;2386;42.138;24.746;2023-03-03T05:24:47;99793.50;;;7.96;100.00
4745;BME280;2386;42.138;24.746;2023-03-03T05:27:14;99787.88;;;8.04;100.00
4745;BME280;2386;42.138;24.746;2023-03-03T05:29:39;99790.78;;;8.15;100.00
4745;BME280;2386;42.138;24.746;2023-03-03T05:32:05;99789.97;;;8.08;100.00
4745;BME280;2386;42.138;24.746;2023-03-03T05:34:30;99792.81;;;8.20;100.00
4745;BME280;2386;42.138;24.746;2023-03-03T05:36:55;99795.78;;;8.12;100.00
4745;BME280;2386;42.138;24.746;2023-03-03T05:39:21;99790.78;;;8.09;100.00
4745;BME280;2386;42.138;24.746;2023-03-03T05:41:47;99799.03;;;8.27;100.00
4745;BME280;2386;42.138;24.746;2023-03-03T05:44:12;99799.47;;;8.24;100.00
4745;BME280;2386;42.138;24.746;2023-03-03T05:46:38;99798.22;;;8.27;100.00
4745;BME280;2386;42.138;24.746;2023-03-03T05:49:03;99802.97;;;8.31;100.00
4745;BME280;2386;42.138;24.746;2023-03-03T05:51:29;99810.69;;;8.34;100.00
4745;BME280;2386;42.138;24.746;2023-03-03T05:53:54;99811.31;;;8.23;100.00
4745;BME280;2386;42.138;24.746;2023-03-03T05:56:20;99805.53;;;8.13;100.00
4745;BME280;2386;42.138;24.746;2023-03-03T05:58:45;99810.28;;;8.24;100.00
4745;BME280;2386;42.138;24.746;2023-03-03T06:01:11;99797.81;;;8.36;100.00
4745;BME280;2386;42.138;24.746;2023-03-03T06:03:36;99807.34;;;8.32;100.00
4745;BME280;2386;42.138;24.746;2023-03-03T06:06:02;99809.84;;;8.40;100.00
4745;BME280;2386;42.138;24.746;2023-03-03T06:08:28;99809.88;;;8.34;100.00
4745;BME280;2386;42.138;24.746;2023-03-03T06:10:54;99802.38;;;8.42;100.00
4745;BME280;2386;42.138;24.746;2023-03-03T06:13:20;99820.41;;;8.55;100.00
4745;BME280;2386;42.138;24.746;2023-03-03T06:15:45;99817.31;;;8.51;100.00
4745;BME280;2386;42.138;24.746;2023-03-03T06:18:11;99806.31;;;8.46;100.00
4745;BME280;2386;42.138;24.746;2023-03-03T06:20:36;99816.47;;;8.51;100.00
4745;BME280;2386;42.138;24.746;2023-03-03T06:23:03;99820.41;;;8.55;100.00
4745;BME280;2386;42.138;24.746;2023-03-03T06:25:28;99829.16;;;8.57;100.00
4745;BME280;2386;42.138;24.746;2023-03-03T06:27:53;99820.22;;;8.56;100.00
4745;BME280;2386;42.138;24.746;2023-03-03T06:30:19;99814.59;;;8.51;100.00
4745;BME280;2386;42.138;24.746;2023-03-03T06:32:45;99829.38;;;8.55;100.00
4745;BME280;2386;42.138;24.746;2023-03-03T06:35:11;99825.22;;;8.53;100.00
4745;BME280;2386;42.138;24.746;2023-03-03T06:37:36;99830.19;;;8.63;100.00
4745;BME280;2386;42.138;24.746;2023-03-03T06:40:03;99819.56;;;8.68;100.00
4745;BME280;2386;42.138;24.746;2023-03-03T06:42:29;99827.03;;;8.72;100.00
4745;BME280;2386;42.138;24.746;2023-03-03T06:44:54;99830.97;;;8.76;100.00
4745;BME280;2386;42.138;24.746;2023-03-03T06:47:19;99829.31;;;8.75;100.00
4745;BME280;2386;42.138;24.746;2023-03-03T06:49:45;99813.38;;;8.47;100.00
4745;BME280;2386;42.138;24.746;2023-03-03T06:52:13;99831.84;;;8.57;100.00
4745;BME280;2386;42.138;24.746;2023-03-03T06:54:39;99821.31;;;8.36;100.00
4745;BME280;2386;42.138;24.746;2023-03-03T06:59:52;99814.16;;;8.61;100.00
4745;BME280;2386;42.138;24.746;2023-03-03T07:02:18;99828.03;;;8.78;100.00
4745;BME280;2386;42.138;24.746;2023-03-03T07:04:44;99822.47;;;8.66;100.00
4745;BME280;2386;42.138;24.746;2023-03-03T07:07:23;99820.63;;;8.60;100.00
4745;BME280;2386;42.138;24.746;2023-03-03T07:09:51;99827.22;;;8.77;100.00
4745;BME280;2386;42.138;24.746;2023-03-03T07:12:19;99820.16;;;8.76;100.00
4745;BME280;2386;42.138;24.746;2023-03-03T07:14:49;99817.19;;;8.84;100.00
4745;BME280;2386;42.138;24.746;2023-03-03T07:17:21;99821.25;;;9.00;100.00
4745;BME280;2386;42.138;24.746;2023-03-03T07:19:47;99823.88;;;8.82;100.00
4745;BME280;2386;42.138;24.746;2023-03-03T07:24:39;99825.13;;;8.79;100.00
4745;BME280;2386;42.138;24.746;2023-03-03T07:29:30;99827.38;;;8.89;100.00
4745;BME280;2386;42.138;24.746;2023-03-03T07:31:57;99826.81;;;8.74;100.00
4745;BME280;2386;42.138;24.746;2023-03-03T07:34:36;99826.44;;;8.57;100.00
4745;BME280;2386;42.138;24.746;2023-03-03T07:39:46;99819.34;;;8.63;100.00
4745;BME280;2386;42.138;24.746;2023-03-03T07:42:25;99827.19;;;8.84;100.00
4745;BME280;2386;42.138;24.746;2023-03-03T07:44:57;99820.91;;;8.90;100.00
4745;BME280;2386;42.138;24.746;2023-03-03T07:49:55;99813.94;;;9.07;100.00
4745;BME280;2386;42.138;24.746;2023-03-03T07:54:57;99818.78;;;8.99;100.00
4745;BME280;2386;42.138;24.746;2023-03-03T07:57:27;99821.88;;;9.02;100.00
4745;BME280;2386;42.138;24.746;2023-03-03T08:00:43;99818.09;;;9.10;100.00
4745;BME280;2386;42.138;24.746;2023-03-03T08:03:04;99816.28;;;8.97;100.00
4745;BME280;2386;42.138;24.746;2023-03-03T08:05:40;99810.88;;;8.97;100.00
4745;BME280;2386;42.138;24.746;2023-03-03T08:08:11;99804.84;;;8.95;100.00
4745;BME280;2386;42.138;24.746;2023-03-03T08:15:45;99797.25;;;9.17;100.00
4745;BME280;2386;42.138;24.746;2023-03-03T08:18:41;99794.56;;;9.10;100.00
4745;BME280;2386;42.138;24.746;2023-03-03T08:22:19;99795.41;;;9.11;100.00
4745;BME280;2386;42.138;24.746;2023-03-03T08:24:49;99792.41;;;9.26;100.00
4745;BME280;2386;42.138;24.746;2023-03-03T08:27:14;99777.56;;;8.97;100.00
4745;BME280;2386;42.138;24.746;2023-03-03T08:29:39;99787.13;;;8.99;100.00
4745;BME280;2386;42.138;24.746;2023-03-03T08:32:05;99781.03;;;8.79;100.00
4745;BME280;2386;42.138;24.746;2023-03-03T08:34:30;99785.88;;;9.02;100.00
4745;BME280;2386;42.138;24.746;2023-03-03T08:36:56;99786.63;;;9.15;100.00
4745;BME280;2386;42.138;24.746;2023-03-03T08:39:22;99769.59;;;9.08;100.00
4745;BME280;2386;42.138;24.746;2023-03-03T08:41:48;99773.88;;;8.91;100.00
4745;BME280;2386;42.138;24.746;2023-03-03T08:44:13;99767.69;;;8.84;100.00
4745;BME280;2386;42.138;24.746;2023-03-03T08:46:39;99767.03;;;8.88;100.00
4745;BME280;2386;42.138;24.746;2023-03-03T08:49:04;99778.91;;;8.87;100.00
4745;BME280;2386;42.138;24.746;2023-03-03T08:51:30;99768.94;;;8.81;100.00
4745;BME280;2386;42.138;24.746;2023-03-03T08:53:57;99773.53;;;8.81;100.00
4745;BME280;2386;42.138;24.746;2023-03-03T08:56:23;99771.69;;;9.06;100.00
4745;BME280;2386;42.138;24.746;2023-03-03T08:58:48;99778.69;;;9.20;100.00
4745;BME280;2386;42.138;24.746;2023-03-03T09:01:14;99773.88;;;9.22;100.00
4745;BME280;2386;42.138;24.746;2023-03-03T09:03:41;99773.34;;;9.07;100.00
4745;BME280;2386;42.138;24.746;2023-03-03T09:06:07;99758.47;;;8.92;100.00
4745;BME280;2386;42.138;24.746;2023-03-03T09:08:33;99774.47;;;8.93;100.00
4745;BME280;2386;42.138;24.746;2023-03-03T09:10:58;99769.84;;;9.00;100.00
4745;BME280;2386;42.138;24.746;2023-03-03T09:13:24;99764.28;;;9.27;100.00
4745;BME280;2386;42.138;24.746;2023-03-03T09:15:50;99763.84;;;9.30;100.00
4745;BME280;2386;42.138;24.746;2023-03-03T09:18:20;99763.59;;;9.38;100.00
4745;BME280;2386;42.138;24.746;2023-03-03T09:20:52;99763.88;;;9.23;100.00
4745;BME280;2386;42.138;24.746;2023-03-03T09:23:36;99763.09;;;9.16;100.00
4745;BME280;2386;42.138;24.746;2023-03-03T09:26:21;99753.19;;;9.35;100.00
4745;BME280;2386;42.138;24.746;2023-03-03T09:28:47;99754.81;;;9.42;100.00
4745;BME280;2386;42.138;24.746;2023-03-03T09:31:48;99753.88;;;9.55;100.00
4745;BME280;2386;42.138;24.746;2023-03-03T09:34:19;99752.16;;;9.61;100.00
4745;BME280;2386;42.138;24.746;2023-03-03T09:36:48;99752.28;;;9.47;100.00
4745;BME280;2386;42.138;24.746;2023-03-03T09:55:49;99744.16;;;9.16;100.00
4745;BME280;2386;42.138;24.746;2023-03-03T09:58:39;99746.38;;;8.94;100.00
4745;BME280;2386;42.138;24.746;2023-03-03T10:04:18;99742.78;;;8.69;100.00
4745;BME280;2386;42.138;24.746;2023-03-03T10:07:05;99741.25;;;8.86;100.00
4745;BME280;2386;42.138;24.746;2023-03-03T10:10:04;99746.03;;;8.84;100.00
4745;BME280;2386;42.138;24.746;2023-03-03T10:12:50;99754.53;;;8.49;100.00
4745;BME280;2386;42.138;24.746;2023-03-03T10:15:38;99748.50;;;8.47;100.00
4745;BME280;2386;42.138;24.746;2023-03-03T10:18:24;99740.38;;;8.47;100.00
4745;BME280;2386;42.138;24.746;2023-03-03T10:23:53;99735.91;;;8.73;100.00
4745;BME280;2386;42.138;24.746;2023-03-03T10:29:39;99734.34;;;8.90;100.00
4745;BME280;2386;42.138;24.746;2023-03-03T10:32:29;99733.81;;;9.06;100.00
4745;BME280;2386;42.138;24.746;2023-03-03T10:35:02;99723.44;;;9.03;100.00
4745;BME280;2386;42.138;24.746;2023-03-03T10:46:11;99715.09;;;9.05;100.00
4745;BME280;2386;42.138;24.746;2023-03-03T10:48:48;99712.47;;;8.92;100.00
4745;BME280;2386;42.138;24.746;2023-03-03T10:51:38;99710.06;;;9.08;100.00
4745;BME280;2386;42.138;24.746;2023-03-03T11:02:25;99695.34;;;9.29;100.00
4745;BME280;2386;42.138;24.746;2023-03-03T11:04:55;99683.66;;;9.35;100.00
4745;BME280;2386;42.138;24.746;2023-03-03T11:07:45;99677.13;;;9.43;100.00
4745;BME280;2386;42.138;24.746;2023-03-03T11:18:43;99681.91;;;9.84;100.00
4745;BME280;2386;42.138;24.746;2023-03-03T11:21:30;99678.75;;;9.87;100.00
4745;BME280;2386;42.138;24.746;2023-03-03T11:27:17;99680.72;;;10.16;100.00
4745;BME280;2386;42.138;24.746;2023-03-03T11:43:26;99670.94;;;9.97;100.00
4745;BME280;2386;42.138;24.746;2023-03-03T11:45:56;99661.06;;;10.03;100.00
4745;BME280;2386;42.138;24.746;2023-03-03T11:48:47;99661.00;;;9.91;100.00
4745;BME280;2386;42.138;24.746;2023-03-03T11:51:31;99648.22;;;9.37;100.00
4745;BME280;2386;42.138;24.746;2023-03-03T11:54:04;99643.91;;;9.54;100.00
4745;BME280;2386;42.138;24.746;2023-03-03T11:56:41;99645.88;;;9.83;100.00
4745;BME280;2386;42.138;24.746;2023-03-03T11:59:24;99641.28;;;10.02;100.00
4745;BME280;2386;42.138;24.746;2023-03-03T12:08:28;99636.38;;;10.29;96.91
4745;BME280;2386;42.138;24.746;2023-03-03T12:21:38;99624.78;;;10.82;91.65
4745;BME280;2386;42.138;24.746;2023-03-03T12:35:19;99618.22;;;11.01;88.68
4745;BME280;2386;42.138;24.746;2023-03-03T12:38:34;99617.59;;;10.88;90.70
4745;BME280;2386;42.138;24.746;2023-03-03T12:41:14;99620.56;;;10.56;92.73
4745;BME280;2386;42.138;24.746;2023-03-03T12:49:05;99618.16;;;10.00;96.51
4745;BME280;2386;42.138;24.746;2023-03-03T12:51:33;99621.31;;;10.15;94.98
4745;BME280;2386;42.138;24.746;2023-03-03T12:56:59;99625.31;;;10.31;98.24
4745;BME280;2386;42.138;24.746;2023-03-03T13:02:39;99615.91;;;10.15;100.00
4745;BME280;2386;42.138;24.746;2023-03-03T13:16:39;99610.03;;;10.00;98.32
4745;BME280;2386;42.138;24.746;2023-03-03T13:19:14;99615.03;;;10.21;97.60
4745;BME280;2386;42.138;24.746;2023-03-03T13:21:57;99607.16;;;10.31;99.21
4745;BME280;2386;42.138;24.746;2023-03-03T13:24:54;99608.31;;;10.24;95.06
4745;BME280;2386;42.138;24.746;2023-03-03T13:27:27;99615.91;;;10.33;94.79
4745;BME280;2386;42.138;24.746;2023-03-03T13:30:00;99612.50;;;10.38;94.02
4745;BME280;2386;42.138;24.746;2023-03-03T13:35:48;99610.34;;;10.10;94.27
4745;BME280;2386;42.138;24.746;2023-03-03T13:38:21;99609.59;;;10.21;93.56
4745;BME280;2386;42.138;24.746;2023-03-03T13:43:28;99590.41;;;9.68;100.00
4745;BME280;2386;42.138;24.746;2023-03-03T13:45:59;99601.25;;;9.68;99.53
4745;BME280;2386;42.138;24.746;2023-03-03T13:48:56;99600.75;;;9.59;100.00
4745;BME280;2386;42.138;24.746;2023-03-03T14:05:43;99591.84;;;9.88;100.00
4745;BME280;2386;42.138;24.746;2023-03-03T14:16:18;99588.81;;;9.97;100.00
4745;BME280;2386;42.138;24.746;2023-03-03T14:18:57;99592.28;;;10.04;100.00
4745;BME280;2386;42.138;24.746;2023-03-03T14:21:42;99599.81;;;10.20;99.64
4745;BME280;2386;42.138;24.746;2023-03-03T14:24:18;99591.81;;;10.25;96.87
4745;BME280;2386;42.138;24.746;2023-03-03T14:26:48;99587.28;;;10.19;96.36
4745;BME280;2386;42.138;24.746;2023-03-03T14:31:53;99581.63;;;10.39;95.29
4745;BME280;2386;42.138;24.746;2023-03-03T14:36:47;99577.03;;;10.39;89.60
4745;BME280;2386;42.138;24.746;2023-03-03T14:39:40;99582.22;;;10.52;90.11
4745;BME280;2386;42.138;24.746;2023-03-03T14:42:28;99575.97;;;10.52;88.42
4745;BME280;2386;42.138;24.746;2023-03-03T14:44:55;99574.41;;;10.44;89.05
4745;BME280;2386;42.138;24.746;2023-03-03T14:47:25;99569.25;;;10.54;89.23
4745;BME280;2386;42.138;24.746;2023-03-03T14:49:52;99564.41;;;10.45;91.05
4745;BME280;2386;42.138;24.746;2023-03-03T14:52:26;99560.03;;;10.32;92.24
4745;BME280;2386;42.138;24.746;2023-03-03T14:54:54;99565.59;;;10.37;92.49
4745;BME280;2386;42.138;24.746;2023-03-03T14:57:36;99568.53;;;10.47;94.19
4745;BME280;2386;42.138;24.746;2023-03-03T15:03:42;99569.00;;;10.44;93.57
4745;BME280;2386;42.138;24.746;2023-03-03T15:06:11;99575.09;;;10.28;92.79
4745;BME280;2386;42.138;24.746;2023-03-03T15:08:40;99570.34;;;10.24;93.27
4745;BME280;2386;42.138;24.746;2023-03-03T15:11:19;99562.59;;;10.27;95.69
4745;BME280;2386;42.138;24.746;2023-03-03T15:13:45;99573.44;;;10.27;94.35
4745;BME280;2386;42.138;24.746;2023-03-03T15:16:17;99568.75;;;10.34;88.19
4745;BME280;2386;42.138;24.746;2023-03-03T15:25:12;99574.97;;;10.05;92.96
4745;BME280;2386;42.138;24.746;2023-03-03T15:27:43;99578.03;;;10.08;93.65
4745;BME280;2386;42.138;24.746;2023-03-03T15:30:29;99585.06;;;9.98;93.42
4745;BME280;2386;42.138;24.746;2023-03-03T15:38:37;99578.72;;;10.04;95.07
4745;BME280;2386;42.138;24.746;2023-03-03T15:41:39;99584.31;;;9.91;96.72
4745;BME280;2386;42.138;24.746;2023-03-03T15:52:28;99589.66;;;9.79;96.79
4745;BME280;2386;42.138;24.746;2023-03-03T15:57:52;99592.75;;;9.82;95.99
4745;BME280;2386;42.138;24.746;2023-03-03T16:00:44;99587.63;;;9.93;91.46
4745;BME280;2386;42.138;24.746;2023-03-03T16:03:18;99607.03;;;10.08;91.36
4745;BME280;2386;42.138;24.746;2023-03-03T16:05:48;99602.81;;;10.12;90.56
4745;BME280;2386;42.138;24.746;2023-03-03T16:11:13;99612.44;;;10.08;94.29
4745;BME280;2386;42.138;24.746;2023-03-03T16:22:15;99631.41;;;10.08;91.83
4745;BME280;2386;42.138;24.746;2023-03-03T16:27:13;99634.72;;;9.92;96.57
4745;BME280;2386;42.138;24.746;2023-03-03T16:30:09;99627.50;;;9.85;98.18
4745;BME280;2386;42.138;24.746;2023-03-03T16:32:47;99627.97;;;9.82;98.00
4745;BME280;2386;42.138;24.746;2023-03-03T16:35:22;99626.16;;;9.76;97.74
4745;BME280;2386;42.138;24.746;2023-03-03T16:43:03;99626.22;;;9.70;98.96
4745;BME280;2386;42.138;24.746;2023-03-03T16:45:33;99637.88;;;9.70;100.00
4745;BME280;2386;42.138;24.746;2023-03-03T16:48:09;99632.91;;;9.67;100.00
4745;BME280;2386;42.138;24.746;2023-03-03T16:51:01;99637.59;;;9.60;100.00
4745;BME280;2386;42.138;24.746;2023-03-03T16:53:49;99641.34;;;9.59;100.00
4745;BME280;2386;42.138;24.746;2023-03-03T16:56:43;99651.88;;;9.67;100.00
4745;BME280;2386;42.138;24.746;2023-03-03T17:04:46;99651.88;;;9.67;100.00
4745;BME280;2386;42.138;24.746;2023-03-03T17:20:36;99654.47;;;9.37;100.00
4745;BME280;2386;42.138;24.746;2023-03-03T17:37:02;99673.19;;;9.39;100.00
4745;BME280;2386;42.138;24.746;2023-03-03T17:47:22;99694.13;;;9.50;100.00
4745;BME280;2386;42.138;24.746;2023-03-03T17:55:17;99700.16;;;9.27;100.00
4745;BME280;2386;42.138;24.746;2023-03-03T17:58:02;99688.59;;;9.13;100.00
4745;BME280;2386;42.138;24.746;2023-03-03T18:06:01;99687.25;;;8.98;100.00
4745;BME280;2386;42.138;24.746;2023-03-03T18:22:19;99709.91;;;8.72;100.00
4745;BME280;2386;42.138;24.746;2023-03-03T18:37:55;99710.41;;;8.55;100.00
4745;BME280;2386;42.138;24.746;2023-03-03T18:40:31;99714.16;;;8.54;100.00